Aviation Digital Data Service (ADDS)

Output produced by METARs form (0323 UTC 14 December 2018)
found at http://aviationweather.gov/metar/data/
 
METAR text: KRNT 140253Z 20003KT 10SM OVC060 09/09 A2997 RMK AO2 SLP152 60000 T00890089 56012 $
Conditions at: KRNT (RENTON , WA, US) observed 0253 UTC 14 December 2018
Temperature: 8.9°C (48°F)
Dewpoint: 8.9°C (48°F) [RH = 100%]
Pressure (altimeter): 29.97 inches Hg (1015.0 mb)
[Sea-level pressure: 1015.2 mb]
Winds: from the SSW (200 degrees) at 3 MPH (3 knots; 1.5 m/s)
Visibility: 10 or more miles (16+ km)
Ceiling: 6000 feet AGL
Clouds: overcast cloud deck at 6000 feet AGL
Weather:
SOME DATA ABOVE MAY BE INACCURATE!!!
"$" is an indication the sensor requires maintenance

METAR text: KRNT 140153Z 00000KT 10SM BKN046 OVC060 09/ A2997 RMK AO2 SLP154 T0089 $
Conditions at: KRNT (RENTON , WA, US) observed 0153 UTC 14 December 2018
Temperature: 8.9°C (48°F)
Dewpoint: missing
Pressure (altimeter): 29.97 inches Hg (1015.0 mb)
[Sea-level pressure: 1015.4 mb]
Winds: calm
Visibility: 10 or more miles (16+ km)
Ceiling: 4600 feet AGL
Clouds: broken clouds at 4600 feet AGL
overcast cloud deck at 6000 feet AGL
Weather:
SOME DATA ABOVE MAY BE INACCURATE!!!
"$" is an indication the sensor requires maintenance